createdAt,value
2018-12-21T03:00:41.271Z,4.87
2018-12-21T03:03:09.401Z,5.60
2018-12-21T03:05:37.523Z,6.17
2018-12-21T03:08:05.916Z,4.73
2018-12-21T03:10:34.280Z,4.97
2018-12-21T03:13:03.576Z,5.20
2018-12-21T03:15:31.763Z,5.30
2018-12-21T03:18:00.123Z,7.37
2018-12-21T03:20:29.968Z,5.20
2018-12-21T03:22:58.136Z,4.53
2018-12-21T03:25:26.339Z,4.80
2018-12-21T03:27:54.475Z,5.77
2018-12-21T03:30:22.640Z,6.23
2018-12-21T03:32:50.788Z,5.27
2018-12-21T03:35:18.968Z,3.80
2018-12-21T03:37:47.125Z,4.03
2018-12-21T03:40:15.513Z,5.17
2018-12-21T03:42:43.671Z,4.10
2018-12-21T03:45:11.824Z,4.73
2018-12-21T03:47:39.951Z,4.60
2018-12-21T03:50:08.351Z,4.60
2018-12-21T03:52:36.477Z,4.27
2018-12-21T03:55:04.926Z,6.23
2018-12-21T03:57:33.114Z,4.20
2018-12-21T04:00:03.372Z,6.13
2018-12-21T04:02:32.579Z,4.27
2018-12-21T04:05:00.804Z,8.33
2018-12-21T04:07:31.068Z,6.03
2018-12-21T04:09:59.276Z,5.23
2018-12-21T04:12:27.727Z,4.73
2018-12-21T04:14:55.962Z,4.67
2018-12-21T04:17:24.078Z,4.30
2018-12-21T04:19:52.223Z,4.43
2018-12-21T04:22:20.665Z,5.27
2018-12-21T04:24:48.801Z,7.60
2018-12-21T04:27:17.153Z,6.43
2018-12-21T04:29:45.664Z,6.07
2018-12-21T04:32:14.784Z,6.03
2018-12-21T04:34:42.905Z,6.77
2018-12-21T04:37:11.310Z,3.77
2018-12-21T04:39:39.719Z,5.67
2018-12-21T04:42:09.818Z,5.83
2018-12-21T04:44:38.037Z,5.97
2018-12-21T04:47:07.264Z,4.93
2018-12-21T04:49:35.400Z,5.17
2018-12-21T04:52:03.544Z,5.30
2018-12-21T04:54:31.708Z,5.10
2018-12-21T04:56:59.853Z,5.60
2018-12-21T04:59:28.023Z,3.87
2018-12-21T05:01:56.160Z,5.33
2018-12-21T05:04:24.513Z,3.63
2018-12-21T05:06:52.743Z,3.27
2018-12-21T05:09:20.869Z,3.07
2018-12-21T05:11:49.057Z,6.20
2018-12-21T05:14:17.209Z,8.13
2018-12-21T05:16:46.237Z,3.60
2018-12-21T05:19:14.391Z,5.60
2018-12-21T05:21:42.556Z,5.57
2018-12-21T05:24:10.944Z,3.13
2018-12-21T05:26:40.097Z,4.83
2018-12-21T05:29:08.229Z,3.73
2018-12-21T05:31:36.386Z,11.60
2018-12-21T05:34:04.541Z,5.33
2018-12-21T05:36:33.842Z,6.33
2018-12-21T05:39:04.725Z,3.37
2018-12-21T05:41:33.636Z,4.90
2018-12-21T05:44:04.131Z,4.80
2018-12-21T05:46:32.312Z,3.70
2018-12-21T05:49:00.677Z,5.00
2018-12-21T05:51:29.968Z,6.77
2018-12-21T05:53:58.130Z,2.97
2018-12-21T05:56:26.635Z,4.77
2018-12-21T05:58:54.871Z,2.87
2018-12-21T06:01:23.229Z,3.13
2018-12-21T06:03:51.457Z,4.87
2018-12-21T06:06:19.641Z,5.43
2018-12-21T06:08:47.813Z,4.70
2018-12-21T06:11:15.944Z,5.63
2018-12-21T06:13:44.092Z,8.20
2018-12-21T06:16:12.321Z,7.90
2018-12-21T06:18:40.818Z,4.33
2018-12-21T06:21:08.980Z,4.40
2018-12-21T06:23:37.115Z,5.67
2018-12-21T06:26:05.262Z,6.63
2018-12-21T06:28:33.437Z,3.93
2018-12-21T06:31:03.326Z,4.80
2018-12-21T06:33:31.469Z,3.93
2018-12-21T06:35:59.645Z,6.77
2018-12-21T06:38:28.038Z,4.40
2018-12-21T06:40:56.417Z,4.63
2018-12-21T06:43:24.591Z,7.60
2018-12-21T06:45:52.768Z,6.37
2018-12-21T06:48:20.911Z,7.20
2018-12-21T06:50:49.025Z,6.37
2018-12-21T06:53:18.090Z,3.93
2018-12-21T06:55:46.513Z,6.13
2018-12-21T06:58:14.669Z,8.90
2018-12-21T07:00:43.056Z,4.77
2018-12-21T07:03:17.069Z,5.23
2018-12-21T07:05:41.428Z,5.80
2018-12-21T07:08:09.624Z,6.97
2018-12-21T07:10:37.978Z,7.57
2018-12-21T07:13:06.136Z,4.93
2018-12-21T07:15:34.525Z,6.73
2018-12-21T07:18:04.013Z,8.57
2018-12-21T07:20:32.167Z,5.30
2018-12-21T07:23:00.322Z,6.43
2018-12-21T07:25:29.908Z,4.47
2018-12-21T07:27:58.088Z,5.10
2018-12-21T07:30:26.230Z,4.93
2018-12-21T07:32:54.446Z,3.97
2018-12-21T07:35:22.604Z,4.47
2018-12-21T07:37:50.724Z,4.27
2018-12-21T07:40:18.842Z,1.83
2018-12-21T07:42:46.997Z,2.67
2018-12-21T07:45:15.167Z,3.00
2018-12-21T07:47:43.294Z,3.97
2018-12-21T07:50:11.817Z,3.43
2018-12-21T07:52:39.975Z,3.43
2018-12-21T07:55:08.125Z,2.77
2018-12-21T07:57:36.526Z,3.90
2018-12-21T08:00:08.055Z,3.13
2018-12-21T08:02:36.227Z,2.23
2018-12-21T08:05:05.206Z,3.27
2018-12-21T08:07:33.652Z,3.40
2018-12-21T08:10:04.681Z,3.10
2018-12-21T08:12:32.855Z,2.37
2018-12-21T08:15:03.180Z,2.00
2018-12-21T08:17:31.324Z,2.13
2018-12-21T08:19:59.479Z,1.97
2018-12-21T08:22:27.632Z,2.73
2018-12-21T08:24:56.028Z,2.67
2018-12-21T08:27:24.168Z,1.93
2018-12-21T08:29:52.345Z,1.60
2018-12-21T08:32:20.504Z,1.97
2018-12-21T08:34:48.890Z,3.63
2018-12-21T08:37:17.016Z,1.83
2018-12-21T08:39:45.416Z,2.83
2018-12-21T08:42:13.920Z,1.00
2018-12-21T08:44:42.308Z,1.40
2018-12-21T08:47:10.425Z,1.90
2018-12-21T08:49:38.584Z,0.90
2018-12-21T08:52:07.221Z,1.33
2018-12-21T08:54:35.357Z,1.00
2018-12-21T08:57:03.523Z,2.70
2018-12-21T08:59:31.912Z,1.87
2018-12-21T09:02:00.130Z,1.67
2018-12-21T09:04:32.272Z,2.40
2018-12-21T09:07:01.536Z,1.43
2018-12-21T09:09:29.664Z,1.20
2018-12-21T09:11:58.129Z,2.10
2018-12-21T09:14:26.248Z,2.83
2018-12-21T09:16:54.400Z,1.03
2018-12-21T09:19:22.547Z,1.07
2018-12-21T09:21:51.642Z,2.60
2018-12-21T09:24:21.134Z,1.10
2018-12-21T09:26:57.082Z,1.23
2018-12-21T09:29:26.973Z,1.43
2018-12-21T09:31:55.587Z,1.93
2018-12-21T09:34:23.723Z,1.73
2018-12-21T09:36:51.845Z,0.80
2018-12-21T09:39:20.130Z,1.30
2018-12-21T09:41:48.273Z,2.30
2018-12-21T09:44:16.399Z,1.20
2018-12-21T09:46:44.562Z,0.70
2018-12-21T09:49:12.687Z,0.70
2018-12-21T09:51:40.822Z,1.63
2018-12-21T09:54:10.010Z,0.63
2018-12-21T09:56:38.524Z,0.97
2018-12-21T09:59:08.065Z,0.80
2018-12-21T10:01:36.437Z,1.20
2018-12-21T10:04:04.561Z,0.83
2018-12-21T10:06:32.727Z,1.03
2018-12-21T10:09:00.875Z,0.70
2018-12-21T10:11:29.559Z,0.93
2018-12-21T10:13:57.728Z,0.70
2018-12-21T10:16:25.850Z,0.80
2018-12-21T10:18:53.974Z,1.63
2018-12-21T10:21:22.138Z,0.77
2018-12-21T10:23:50.592Z,0.60
2018-12-21T10:26:18.752Z,2.63
2018-12-21T10:28:46.883Z,1.00
2018-12-21T10:31:15.054Z,1.17
2018-12-21T10:33:43.183Z,1.87
2018-12-21T10:36:11.324Z,0.53
2018-12-21T10:38:39.472Z,0.90
2018-12-21T10:41:07.622Z,1.30
2018-12-21T10:43:35.749Z,0.77
2018-12-21T10:46:04.967Z,0.77
2018-12-21T10:48:37.318Z,1.37
2018-12-21T10:51:04.037Z,0.80
2018-12-21T10:53:32.177Z,1.93
2018-12-21T10:56:00.377Z,0.60
2018-12-21T10:58:29.886Z,1.00
2018-12-21T11:00:58.054Z,0.80
2018-12-21T11:03:26.314Z,0.80
2018-12-21T11:05:54.849Z,1.27
2018-12-21T11:08:22.999Z,1.03
2018-12-21T11:10:52.065Z,1.00
2018-12-21T11:13:20.250Z,0.70
2018-12-21T11:15:48.385Z,0.97
2018-12-21T11:18:16.568Z,0.57
2018-12-21T11:20:44.696Z,0.70
2018-12-21T11:23:12.871Z,0.50
2018-12-21T11:25:41.001Z,0.40
2018-12-21T11:28:09.127Z,0.80
2018-12-21T11:30:37.533Z,0.60
2018-12-21T11:33:05.674Z,0.40
2018-12-21T11:35:33.820Z,1.00
2018-12-21T11:38:02.865Z,0.40
2018-12-21T11:40:30.990Z,0.80
2018-12-21T11:42:59.121Z,0.50
2018-12-21T11:45:27.306Z,0.50
2018-12-21T11:47:55.435Z,0.77
2018-12-21T11:50:23.579Z,0.60
2018-12-21T11:52:51.750Z,0.77
2018-12-21T11:55:19.947Z,1.40
2018-12-21T11:57:48.065Z,0.87
2018-12-21T12:00:16.246Z,0.57
2018-12-21T12:02:44.378Z,0.90
2018-12-21T12:05:12.502Z,0.70
2018-12-21T12:07:40.680Z,0.77
2018-12-21T12:10:09.784Z,1.10
2018-12-21T12:12:39.297Z,0.70
2018-12-21T12:15:07.849Z,0.80
2018-12-21T12:17:35.974Z,1.43
2018-12-21T12:20:06.023Z,1.50
2018-12-21T12:22:34.235Z,0.67
2018-12-21T12:25:05.631Z,1.10
2018-12-21T12:27:33.769Z,0.80
2018-12-21T12:30:02.493Z,0.93
2018-12-21T12:32:30.662Z,0.70
2018-12-21T12:34:58.819Z,0.60
2018-12-21T12:37:26.944Z,0.80
2018-12-21T12:39:55.137Z,1.10
2018-12-21T12:42:23.286Z,0.97
2018-12-21T12:44:51.414Z,1.50
2018-12-21T12:47:19.595Z,0.80
2018-12-21T12:49:47.733Z,0.80
2018-12-21T12:52:15.862Z,0.90
2018-12-21T12:54:44.036Z,1.00
2018-12-21T12:57:12.180Z,1.20
2018-12-21T12:59:40.380Z,1.57
2018-12-21T13:02:08.561Z,0.80
2018-12-21T13:04:36.691Z,0.80
2018-12-21T13:07:04.902Z,6.03
2018-12-21T13:09:33.086Z,0.60
2018-12-21T13:12:02.900Z,0.70
2018-12-21T13:14:31.040Z,0.70
2018-12-21T13:16:59.211Z,0.93
2018-12-21T13:19:27.351Z,0.87
2018-12-21T13:21:55.490Z,0.77
2018-12-21T13:24:23.682Z,3.00
2018-12-21T13:26:51.873Z,10.77
2018-12-21T13:29:20.063Z,3.00
2018-12-21T13:31:48.246Z,0.80
2018-12-21T13:34:16.547Z,1.27
2018-12-21T13:36:44.696Z,1.20
2018-12-21T13:39:12.956Z,1.33
2018-12-21T13:41:41.125Z,1.10
2018-12-21T13:44:09.327Z,0.90
2018-12-21T13:46:37.510Z,2.57
2018-12-21T13:49:05.686Z,0.80
2018-12-21T13:51:33.831Z,0.70
2018-12-21T13:54:04.130Z,1.20
2018-12-21T13:56:32.302Z,1.30
2018-12-21T13:59:00.537Z,1.20
2018-12-21T14:01:30.455Z,1.63
2018-12-21T14:03:58.649Z,0.93
2018-12-21T14:06:26.791Z,1.80
2018-12-21T14:08:54.970Z,0.87
2018-12-21T14:11:23.462Z,0.90
2018-12-21T14:13:51.585Z,1.67
2018-12-21T14:16:19.718Z,1.57
2018-12-21T14:18:48.111Z,0.90
2018-12-21T14:21:16.246Z,1.20
2018-12-21T14:23:44.392Z,1.40
2018-12-21T14:26:12.572Z,1.43
2018-12-21T14:28:42.592Z,1.30
2018-12-21T14:31:10.959Z,1.47
2018-12-21T14:33:39.114Z,2.80
2018-12-21T14:36:07.322Z,7.87
2018-12-21T14:38:35.526Z,2.80
2018-12-21T14:41:03.655Z,2.10
2018-12-21T14:43:31.836Z,2.30
2018-12-21T14:46:00.028Z,1.40
2018-12-21T14:48:30.059Z,1.73
2018-12-21T14:50:58.245Z,1.47
2018-12-21T14:53:26.378Z,1.30
2018-12-21T14:55:54.514Z,1.63
2018-12-21T14:58:22.708Z,2.07
2018-12-21T15:00:50.843Z,10.67
2018-12-21T15:03:18.983Z,1.50
2018-12-21T15:05:47.246Z,5.67
2018-12-21T15:08:15.377Z,1.93
2018-12-21T15:10:43.697Z,1.90
2018-12-21T15:13:11.828Z,2.13
2018-12-21T15:15:39.966Z,14.90
2018-12-21T15:18:08.164Z,1.90
2018-12-21T15:20:36.298Z,1.20
2018-12-21T15:23:04.490Z,1.30
2018-12-21T15:25:32.631Z,1.73
2018-12-21T15:28:00.767Z,1.53
2018-12-21T15:30:30.361Z,2.10
2018-12-21T15:32:58.503Z,1.30
2018-12-21T15:35:26.636Z,1.57
2018-12-21T15:37:54.825Z,1.23
2018-12-21T15:40:23.017Z,1.30
2018-12-21T15:42:51.209Z,1.70
2018-12-21T15:45:19.397Z,0.80
2018-12-21T15:47:47.566Z,1.60
2018-12-21T15:50:15.715Z,1.20
2018-12-21T15:52:43.900Z,3.00
2018-12-21T15:55:12.071Z,1.70
2018-12-21T15:57:40.337Z,2.10
2018-12-21T16:00:10.775Z,1.30
2018-12-21T16:02:39.731Z,1.30
2018-12-21T16:05:07.928Z,3.90
2018-12-21T16:07:36.089Z,2.27
2018-12-21T16:10:07.566Z,1.43
2018-12-21T16:12:35.764Z,1.13
2018-12-21T16:15:04.424Z,1.10
2018-12-21T16:17:32.569Z,0.87
2018-12-21T16:20:00.749Z,2.10
2018-12-21T16:22:29.863Z,1.97
2018-12-21T16:24:58.040Z,3.97
2018-12-21T16:27:26.173Z,5.63
2018-12-21T16:29:54.373Z,4.20
2018-12-21T16:32:22.506Z,4.00
2018-12-21T16:34:50.698Z,3.93
2018-12-21T16:37:18.842Z,1.20
2018-12-21T16:39:46.974Z,1.50
2018-12-21T16:42:15.169Z,1.40
2018-12-21T16:44:43.412Z,2.33
2018-12-21T16:47:11.552Z,1.40
2018-12-21T16:49:39.747Z,1.80
2018-12-21T16:52:07.891Z,2.83
2018-12-21T16:54:36.078Z,1.87
2018-12-21T16:57:04.376Z,2.97
2018-12-21T16:59:32.561Z,1.40
2018-12-21T17:02:00.693Z,1.50
2018-12-21T17:04:29.072Z,1.87
2018-12-21T17:06:57.273Z,2.37
2018-12-21T17:09:25.405Z,1.40
2018-12-21T17:11:53.543Z,2.60
2018-12-21T17:14:21.725Z,2.73
2018-12-21T17:16:49.865Z,1.20
2018-12-21T17:19:18.002Z,1.20
2018-12-21T17:21:46.178Z,1.33
2018-12-21T17:24:14.315Z,1.30
2018-12-21T17:26:42.499Z,1.73
2018-12-21T17:29:10.915Z,1.77
2018-12-21T17:31:39.109Z,1.13
2018-12-21T17:34:07.249Z,3.17
2018-12-21T17:36:35.435Z,1.40
2018-12-21T17:39:05.235Z,1.57
2018-12-21T17:41:33.378Z,1.00
2018-12-21T17:44:03.390Z,1.40
2018-12-21T17:46:31.553Z,2.03
2018-12-21T17:48:59.694Z,2.27
2018-12-21T17:51:27.881Z,1.83
2018-12-21T17:53:56.017Z,1.47
2018-12-21T17:56:29.899Z,1.50
2018-12-21T17:58:54.575Z,1.67
2018-12-21T18:01:22.708Z,1.80
2018-12-21T18:03:52.078Z,1.20
2018-12-21T18:06:20.526Z,1.20
2018-12-21T18:08:49.064Z,1.10
2018-12-21T18:11:17.219Z,2.17
2018-12-21T18:13:45.411Z,1.77
2018-12-21T18:16:14.564Z,2.33
2018-12-21T18:18:42.696Z,1.83
2018-12-21T18:21:10.827Z,5.30
2018-12-21T18:23:39.171Z,2.40
2018-12-21T18:26:07.308Z,2.53
2018-12-21T18:28:35.494Z,2.23
2018-12-21T18:31:07.560Z,1.60
2018-12-21T18:33:35.759Z,3.23
2018-12-21T18:36:03.894Z,6.07
2018-12-21T18:38:32.022Z,5.97
2018-12-21T18:41:00.214Z,2.60
2018-12-21T18:43:29.937Z,5.97
2018-12-21T18:45:58.139Z,7.80
2018-12-21T18:48:26.335Z,6.47
2018-12-21T18:50:54.471Z,10.63
2018-12-21T18:53:22.791Z,10.60
2018-12-21T18:55:51.003Z,9.60
2018-12-21T18:58:20.229Z,10.10
2018-12-21T19:00:48.463Z,9.10
2018-12-21T19:03:16.603Z,9.90
2018-12-21T19:05:44.814Z,11.63
2018-12-21T19:08:32.296Z,9.87
2018-12-21T19:11:00.489Z,11.47
2018-12-21T19:13:30.054Z,11.93
2018-12-21T19:15:58.191Z,14.17
2018-12-21T19:18:26.374Z,9.37
2018-12-21T19:20:54.512Z,16.43
2018-12-21T19:23:22.666Z,12.17
2018-12-21T19:25:50.867Z,13.87
2018-12-21T19:28:19.068Z,10.60
2018-12-21T19:30:47.222Z,11.57
2018-12-21T19:33:15.367Z,13.43
2018-12-21T19:35:43.569Z,11.93
2018-12-21T19:38:11.717Z,15.80
2018-12-21T19:40:39.852Z,15.30
2018-12-21T19:43:08.046Z,23.13
2018-12-21T19:45:36.185Z,20.50
2018-12-21T19:48:04.322Z,18.00
2018-12-21T19:50:32.567Z,16.13
2018-12-21T19:53:03.314Z,15.83
2018-12-21T19:55:40.073Z,16.97
2018-12-21T19:58:08.273Z,15.43
2018-12-21T20:00:36.413Z,17.63
2018-12-21T20:03:04.563Z,23.57
2018-12-21T20:05:32.763Z,17.93
2018-12-21T20:08:00.898Z,22.37
2018-12-21T20:10:29.034Z,14.93
2018-12-21T20:12:58.235Z,19.13
2018-12-21T20:15:26.429Z,18.97
2018-12-21T20:17:54.671Z,17.03
2018-12-21T20:20:22.869Z,22.20
2018-12-21T20:22:51.081Z,20.33
2018-12-21T20:25:19.463Z,17.37
2018-12-21T20:27:47.609Z,20.10
2018-12-21T20:30:16.394Z,20.20
2018-12-21T20:32:44.595Z,20.47
2018-12-21T20:35:12.802Z,22.50
2018-12-21T20:37:40.939Z,17.07
2018-12-21T20:40:11.359Z,18.60
2018-12-21T20:42:40.559Z,18.13
2018-12-21T20:45:10.573Z,18.43
2018-12-21T20:47:38.731Z,17.63
2018-12-21T20:50:11.593Z,17.93
2018-12-21T20:52:39.732Z,17.07
2018-12-21T20:55:09.410Z,20.73
2018-12-21T20:57:40.456Z,16.47
2018-12-21T21:00:15.537Z,18.00
2018-12-21T21:02:43.755Z,15.97
2018-12-21T21:05:11.929Z,17.40
2018-12-21T21:07:40.389Z,15.30
2018-12-21T21:10:10.762Z,12.03
2018-12-21T21:12:39.488Z,14.73
2018-12-21T21:15:10.516Z,13.13
2018-12-21T21:17:38.667Z,13.93
2018-12-21T21:20:12.062Z,11.73
2018-12-21T21:22:40.209Z,12.83
2018-12-21T21:25:08.390Z,10.43
2018-12-21T21:27:37.679Z,14.37
2018-12-21T21:30:12.963Z,11.27
2018-12-21T21:32:41.103Z,12.20
2018-12-21T21:35:09.317Z,11.87
2018-12-21T21:37:37.458Z,9.03
2018-12-21T21:40:09.852Z,11.83
2018-12-21T21:42:38.047Z,12.13
2018-12-21T21:45:08.555Z,10.60
2018-12-21T21:47:36.758Z,7.47
2018-12-21T21:50:08.146Z,12.20
2018-12-21T21:52:36.373Z,8.37
2018-12-21T21:55:04.503Z,7.47
2018-12-21T21:57:39.321Z,10.37
2018-12-21T22:00:07.131Z,9.90
2018-12-21T22:02:35.262Z,12.50
2018-12-21T22:05:03.399Z,7.70
2018-12-21T22:07:31.589Z,9.13
2018-12-21T22:09:59.726Z,9.17
2018-12-21T22:12:27.923Z,8.77
2018-12-21T22:14:56.069Z,8.87
2018-12-21T22:17:24.256Z,9.83
2018-12-21T22:19:52.405Z,8.37
2018-12-21T22:22:20.596Z,12.37
2018-12-21T22:24:48.743Z,10.93
2018-12-21T22:27:16.887Z,8.00
2018-12-21T22:29:45.059Z,10.00
2018-12-21T22:32:13.194Z,5.90
2018-12-21T22:34:41.339Z,8.07
2018-12-21T22:37:09.510Z,12.40
2018-12-21T22:39:37.662Z,8.40
2018-12-21T22:42:05.794Z,6.47
2018-12-21T22:44:33.959Z,8.33
2018-12-21T22:47:03.268Z,8.67
2018-12-21T22:49:31.394Z,6.33
2018-12-21T22:51:59.524Z,6.83
2018-12-21T22:54:27.694Z,6.53
2018-12-21T22:56:55.842Z,7.60
2018-12-21T22:59:23.984Z,9.83
2018-12-21T23:01:52.156Z,6.83
2018-12-21T23:04:20.362Z,8.27
2018-12-21T23:06:48.626Z,8.80
2018-12-21T23:09:16.780Z,7.10
2018-12-21T23:11:44.932Z,9.10
2018-12-21T23:14:13.165Z,9.50
